createdAt,value
2019-05-03T00:02:23.784Z,95735.05
2019-05-03T00:05:02.918Z,95735.41
2019-05-03T00:07:31.798Z,95728.66
2019-05-03T00:10:00.425Z,95730.77
2019-05-03T00:12:28.975Z,95729.72
2019-05-03T00:15:14.044Z,95737.80
2019-05-03T00:17:42.537Z,95728.02
2019-05-03T00:20:11.641Z,95730.24
2019-05-03T00:22:41.902Z,95732.06
2019-05-03T00:25:12.718Z,95722.59
2019-05-03T00:27:42.618Z,95725.19
2019-05-03T00:30:11.997Z,95723.31
2019-05-03T00:32:42.601Z,95730.58
2019-05-03T00:35:15.485Z,95733.27
2019-05-03T00:37:45.602Z,95726.89
2019-05-03T00:40:29.356Z,95728.61
2019-05-03T00:42:58.544Z,95726.00
2019-05-03T00:45:27.203Z,95725.00
2019-05-03T00:47:55.827Z,95723.02
2019-05-03T00:50:24.353Z,95726.33
2019-05-03T00:52:53.366Z,95718.92
2019-05-03T00:55:22.160Z,95717.55
2019-05-03T00:57:52.171Z,95715.69
2019-05-03T01:00:21.803Z,95717.39
2019-05-03T01:02:51.770Z,95710.66
2019-05-03T01:05:22.521Z,95708.72
2019-05-03T01:07:52.400Z,95698.41
2019-05-03T01:10:22.615Z,95707.81
2019-05-03T01:12:52.366Z,95697.06
2019-05-03T01:15:22.630Z,95702.45
2019-05-03T01:17:52.539Z,95699.52
2019-05-03T01:20:22.557Z,95703.50
2019-05-03T01:22:51.919Z,95701.98
2019-05-03T01:25:31.548Z,95708.52
2019-05-03T01:27:52.180Z,95709.39
2019-05-03T01:30:22.517Z,95715.75
2019-05-03T01:32:52.343Z,95702.86
2019-05-03T01:35:21.967Z,95702.74
2019-05-03T01:37:51.718Z,95699.38
2019-05-03T01:40:21.986Z,95702.45
2019-05-03T01:42:52.692Z,95703.86
2019-05-03T01:45:22.802Z,95705.88
2019-05-03T01:47:58.830Z,95701.31
2019-05-03T01:50:28.948Z,95705.06
2019-05-03T01:53:02.005Z,95706.64
2019-05-03T01:55:47.816Z,95704.77
2019-05-03T01:58:16.302Z,95702.07
2019-05-03T02:00:44.752Z,95702.36
2019-05-03T02:03:14.865Z,95706.76
2019-05-03T02:05:44.980Z,95703.71
2019-05-03T02:08:14.351Z,95701.98
2019-05-03T02:10:43.775Z,95707.02
2019-05-03T02:13:12.387Z,95709.39
2019-05-03T02:15:42.183Z,95709.27
2019-05-03T02:18:14.755Z,95707.63
2019-05-03T02:20:41.814Z,95701.72
2019-05-03T02:23:11.897Z,95700.22
2019-05-03T02:25:41.853Z,95693.25
2019-05-03T02:28:12.463Z,95696.16
2019-05-03T02:30:44.041Z,95702.36
2019-05-03T02:33:13.518Z,95709.10
2019-05-03T02:35:42.968Z,95703.71
2019-05-03T02:38:13.024Z,95706.20
2019-05-03T02:40:42.905Z,95699.23
2019-05-03T02:43:16.378Z,95700.58
2019-05-03T02:46:01.294Z,95703.42
2019-05-03T02:48:31.392Z,95702.66
2019-05-03T02:50:59.870Z,95697.85
2019-05-03T02:53:28.374Z,95689.23
2019-05-03T02:56:13.062Z,95692.64
2019-05-03T02:58:27.112Z,95695.25
2019-05-03T03:01:01.065Z,95694.83
2019-05-03T03:03:30.846Z,95694.57
2019-05-03T03:06:00.374Z,95693.02
2019-05-03T03:08:32.990Z,95696.77
2019-05-03T03:11:06.043Z,95690.56
2019-05-03T03:13:36.793Z,95694.22
2019-05-03T03:16:08.467Z,95694.05
2019-05-03T03:18:38.775Z,95696.53
2019-05-03T03:21:10.770Z,95693.55
2019-05-03T03:23:57.485Z,95695.39
2019-05-03T03:26:37.354Z,95693.22
2019-05-03T03:29:06.517Z,95695.72
2019-05-03T03:31:48.202Z,95690.56
2019-05-03T03:34:19.850Z,95690.38
2019-05-03T03:37:03.580Z,95692.88
2019-05-03T03:39:25.942Z,95688.74
2019-05-03T03:41:55.899Z,95692.44
2019-05-03T03:44:25.607Z,95692.49
2019-05-03T03:46:56.319Z,95689.56
2019-05-03T03:49:26.570Z,95691.91
2019-05-03T03:51:56.355Z,95687.83
2019-05-03T03:54:26.094Z,95688.77
2019-05-03T03:57:03.346Z,95688.39
2019-05-03T03:59:27.024Z,95684.95
2019-05-03T04:01:56.051Z,95691.37
2019-05-03T04:04:26.027Z,95690.64
2019-05-03T04:06:58.416Z,95689.81
2019-05-03T04:09:25.996Z,95691.69
2019-05-03T04:11:56.702Z,95694.67
2019-05-03T04:14:36.018Z,95692.05
2019-05-03T04:17:05.875Z,95696.84
2019-05-03T04:19:38.630Z,95693.92
2019-05-03T04:22:07.280Z,95698.48
2019-05-03T04:24:35.759Z,95700.06
2019-05-03T04:27:18.736Z,95705.09
2019-05-03T04:29:38.349Z,95702.98
2019-05-03T04:32:08.615Z,95705.52
2019-05-03T04:34:37.214Z,95709.85
2019-05-03T04:37:06.089Z,95711.43
2019-05-03T04:39:36.024Z,95706.37
2019-05-03T04:42:06.783Z,95708.21
2019-05-03T04:44:35.955Z,95715.05
2019-05-03T04:47:06.833Z,95714.66
2019-05-03T04:49:36.300Z,95717.35
2019-05-03T04:52:05.851Z,95719.49
2019-05-03T04:54:41.836Z,95721.80
2019-05-03T04:57:10.340Z,95723.53
2019-05-03T04:59:38.816Z,95728.62
2019-05-03T05:02:07.295Z,95732.08
2019-05-03T05:04:36.001Z,95734.37
2019-05-03T05:07:06.254Z,95738.64
2019-05-03T05:09:35.165Z,95736.83
2019-05-03T05:12:05.754Z,95746.65
2019-05-03T05:14:35.213Z,95745.37
2019-05-03T05:17:06.112Z,95745.89
2019-05-03T05:19:36.167Z,95753.87
2019-05-03T05:22:06.298Z,95759.59
2019-05-03T05:24:34.810Z,95753.52
2019-05-03T05:27:05.292Z,95757.03
2019-05-03T05:29:35.711Z,95750.75
2019-05-03T05:32:05.298Z,95762.05
2019-05-03T05:34:34.905Z,95767.66
2019-05-03T05:37:08.899Z,95760.89
2019-05-03T05:42:24.521Z,95777.31
2019-05-03T05:45:11.374Z,95777.05
2019-05-03T05:50:44.910Z,95777.75
2019-05-03T05:53:15.327Z,95786.87
2019-05-03T05:55:49.440Z,95783.66
2019-05-03T06:01:52.221Z,95790.69
2019-05-03T06:04:20.681Z,95795.36
2019-05-03T06:07:05.625Z,95798.64
2019-05-03T06:09:35.740Z,95804.09
2019-05-03T06:12:08.713Z,95809.71
2019-05-03T06:14:39.989Z,95810.05
2019-05-03T06:17:11.024Z,95804.43
2019-05-03T06:19:44.927Z,95805.32
2019-05-03T06:22:15.399Z,95804.83
2019-05-03T06:25:01.509Z,95810.41
2019-05-03T06:27:32.404Z,95810.70
2019-05-03T06:30:04.584Z,95813.92
2019-05-03T06:32:34.655Z,95817.21
2019-05-03T06:35:04.937Z,95816.20
2019-05-03T06:37:35.471Z,95812.30
2019-05-03T06:40:06.365Z,95811.47
2019-05-03T06:42:35.544Z,95814.45
2019-05-03T06:45:11.575Z,95817.03
2019-05-03T06:47:40.165Z,95811.94
2019-05-03T06:50:11.474Z,95817.95
2019-05-03T06:52:40.003Z,95820.52
2019-05-03T06:55:10.492Z,95816.60
2019-05-03T06:57:45.656Z,95814.20
2019-05-03T07:00:18.191Z,95815.65
2019-05-03T07:02:54.636Z,95813.55
2019-05-03T07:05:27.341Z,95816.47
2019-05-03T07:08:05.189Z,95819.00
2019-05-03T07:10:35.648Z,95815.75
2019-05-03T07:13:06.151Z,95816.98
2019-05-03T07:15:35.569Z,95814.68
2019-05-03T07:23:48.480Z,95824.13
2019-05-03T07:32:15.479Z,95824.02
2019-05-03T07:34:48.016Z,95820.59
2019-05-03T07:37:18.128Z,95822.53
2019-05-03T07:42:38.391Z,95823.73
2019-05-03T07:45:14.897Z,95823.56
2019-05-03T07:47:50.389Z,95824.81
2019-05-03T07:50:19.035Z,95822.12
2019-05-03T07:52:55.545Z,95822.70
2019-05-03T07:55:26.022Z,95818.48
2019-05-03T07:57:56.095Z,95816.83
2019-05-03T08:00:26.337Z,95818.07
2019-05-03T08:02:55.058Z,95822.84
2019-05-03T08:05:24.700Z,95819.50
2019-05-03T08:07:55.253Z,95811.58
2019-05-03T08:10:25.603Z,95814.64
2019-05-03T08:12:54.412Z,95821.86
2019-05-03T08:15:24.561Z,95826.39
2019-05-03T08:17:53.075Z,95833.55
2019-05-03T08:20:21.577Z,95825.98
2019-05-03T08:22:50.061Z,95823.52
2019-05-03T08:25:18.550Z,95826.56
2019-05-03T08:27:47.036Z,95828.02
2019-05-03T08:30:17.436Z,95836.00
2019-05-03T08:32:59.382Z,95836.13
2019-05-03T08:35:29.524Z,95837.00
2019-05-03T08:37:59.279Z,95842.41
2019-05-03T08:40:29.435Z,95844.23
2019-05-03T08:42:57.946Z,95840.37
2019-05-03T08:45:26.590Z,95845.14
2019-05-03T08:47:55.415Z,95841.89
2019-05-03T08:50:25.669Z,95842.53
2019-05-03T08:52:55.690Z,95849.71
2019-05-03T08:55:25.067Z,95845.53
2019-05-03T08:57:55.224Z,95846.87
2019-05-03T09:00:25.410Z,95845.64
2019-05-03T09:02:54.867Z,95839.35
2019-05-03T09:05:30.786Z,95843.69
2019-05-03T09:07:59.278Z,95839.80
2019-05-03T09:10:30.281Z,95837.06
2019-05-03T09:13:08.145Z,95835.11
2019-05-03T09:15:38.178Z,95833.02
2019-05-03T09:18:06.820Z,95839.73
2019-05-03T09:20:35.718Z,95829.36
2019-05-03T09:23:05.315Z,95833.63
2019-05-03T09:25:40.276Z,95831.61
2019-05-03T09:28:11.313Z,95834.42
2019-05-03T09:33:31.682Z,95837.92
2019-05-03T09:36:00.163Z,95828.62
2019-05-03T09:38:28.622Z,95829.25
2019-05-03T09:40:57.141Z,95836.09
2019-05-03T09:43:26.532Z,95840.69
2019-05-03T09:45:55.018Z,95830.13
2019-05-03T09:48:25.877Z,95832.94
2019-05-03T09:50:56.761Z,95830.27
2019-05-03T09:53:35.126Z,95827.48
2019-05-03T09:56:48.005Z,95831.27
2019-05-03T09:59:10.746Z,95825.92
2019-05-03T10:01:39.221Z,95827.34
2019-05-03T10:04:07.720Z,95822.72
2019-05-03T10:06:36.209Z,95831.39
2019-05-03T10:09:05.996Z,95818.45
2019-05-03T10:11:35.217Z,95821.64
2019-05-03T10:14:05.298Z,95821.30
2019-05-03T10:16:55.016Z,95818.50
2019-05-03T10:19:36.268Z,95824.87
2019-05-03T10:21:55.424Z,95820.86
2019-05-03T10:24:23.904Z,95816.83
2019-05-03T10:26:52.406Z,95814.33
2019-05-03T10:29:20.897Z,95814.63
2019-05-03T10:32:00.336Z,95807.42
2019-05-03T10:34:30.819Z,95813.72
2019-05-03T10:36:59.412Z,95814.52
2019-05-03T10:39:27.901Z,95812.02
2019-05-03T10:41:56.396Z,95810.59
2019-05-03T10:44:24.955Z,95807.08
2019-05-03T10:46:53.429Z,95803.91
2019-05-03T10:49:21.908Z,95799.88
2019-05-03T10:51:55.023Z,95806.16
2019-05-03T10:54:23.540Z,95794.42
2019-05-03T10:56:55.482Z,95795.98
2019-05-03T10:59:25.390Z,95798.98
2019-05-03T11:02:07.149Z,95796.28
2019-05-03T11:04:35.768Z,95796.30
2019-05-03T11:07:05.488Z,95786.00
2019-05-03T11:09:48.566Z,95786.80
2019-05-03T11:12:07.533Z,95781.02
2019-05-03T11:14:36.090Z,95778.87
2019-05-03T11:17:05.662Z,95780.25
2019-05-03T11:19:34.859Z,95775.39
2019-05-03T11:22:05.454Z,95770.25
2019-05-03T11:24:34.862Z,95763.17
2019-05-03T11:27:05.215Z,95759.65
2019-05-03T11:29:35.548Z,95763.20
2019-05-03T11:32:09.440Z,95759.39
2019-05-03T11:34:37.614Z,95760.73
2019-05-03T11:37:25.150Z,95755.84
2019-05-03T11:39:55.724Z,95758.03
2019-05-03T11:42:24.536Z,95754.49
2019-05-03T11:44:53.036Z,95748.53
2019-05-03T11:47:21.517Z,95746.34
2019-05-03T11:49:50.021Z,95745.24
2019-05-03T11:52:18.487Z,95741.16
2019-05-03T11:54:46.978Z,95739.52
2019-05-03T11:57:26.306Z,95737.62
2019-05-03T11:59:55.197Z,95728.91
2019-05-03T12:02:28.909Z,95728.39
2019-05-03T12:04:59.243Z,95730.31
2019-05-03T12:07:39.989Z,95728.12
2019-05-03T12:10:15.045Z,95720.52
2019-05-03T12:12:36.932Z,95716.95
2019-05-03T12:15:06.752Z,95716.91
2019-05-03T12:17:50.433Z,95718.19
2019-05-03T12:20:09.125Z,95710.17
2019-05-03T12:22:38.456Z,95714.95
2019-05-03T12:25:10.347Z,95706.23
2019-05-03T12:27:38.567Z,95706.49
2019-05-03T12:30:35.325Z,95700.01
2019-05-03T12:33:06.040Z,95701.87
2019-05-03T12:35:35.767Z,95700.09
2019-05-03T12:38:05.822Z,95691.58
2019-05-03T12:40:34.944Z,95689.92
2019-05-03T12:43:05.987Z,95687.27
2019-05-03T12:45:35.427Z,95685.58
2019-05-03T12:48:05.204Z,95684.52
2019-05-03T12:50:34.687Z,95686.28
2019-05-03T12:53:04.816Z,95676.97
2019-05-03T12:55:35.679Z,95675.92
2019-05-03T12:58:06.436Z,95677.95
2019-05-03T13:00:37.511Z,95668.29
2019-05-03T13:03:10.722Z,95668.38
2019-05-03T13:05:39.228Z,95670.00
2019-05-03T13:08:38.534Z,95666.73
2019-05-03T13:11:07.496Z,95661.33
2019-05-03T13:13:36.267Z,95653.68
2019-05-03T13:16:05.325Z,95650.36
2019-05-03T13:18:35.093Z,95647.32
2019-05-03T13:21:05.868Z,95646.56
2019-05-03T13:23:35.572Z,95641.45
2019-05-03T13:26:05.525Z,95633.30
2019-05-03T13:28:34.589Z,95627.83
2019-05-03T13:31:05.444Z,95619.41
2019-05-03T13:33:34.829Z,95614.83
2019-05-03T13:36:03.663Z,95616.57
2019-05-03T13:38:32.152Z,95615.12
2019-05-03T13:41:00.739Z,95608.58
2019-05-03T13:43:29.227Z,95611.77
2019-05-03T13:45:57.776Z,95610.00
2019-05-03T13:48:26.642Z,95607.61
2019-05-03T13:50:55.305Z,95606.81
2019-05-03T13:53:25.570Z,95606.78
2019-05-03T13:55:55.262Z,95610.67
2019-05-03T13:58:23.889Z,95600.12
2019-05-03T14:00:54.906Z,95599.08
2019-05-03T14:03:23.177Z,95599.99
2019-05-03T14:05:51.739Z,95595.60
2019-05-03T14:08:20.282Z,95591.56
2019-05-03T14:10:48.836Z,95588.66
2019-05-03T14:13:17.409Z,95595.80
2019-05-03T14:15:46.031Z,95590.67
2019-05-03T14:18:15.268Z,95597.23
2019-05-03T14:20:45.690Z,95589.38
2019-05-03T14:23:14.866Z,95590.47
2019-05-03T14:25:44.675Z,95589.17
2019-05-03T14:28:14.591Z,95585.36
2019-05-03T14:30:45.391Z,95589.17
2019-05-03T14:33:13.994Z,95590.53
2019-05-03T14:35:42.532Z,95599.84
2019-05-03T14:38:11.047Z,95602.02
2019-05-03T14:40:39.641Z,95592.23
2019-05-03T14:43:08.186Z,95593.86
2019-05-03T14:45:36.764Z,95589.81
2019-05-03T14:48:06.175Z,95584.67
2019-05-03T14:50:35.219Z,95578.16
2019-05-03T14:53:05.491Z,95588.19
2019-05-03T14:55:45.286Z,95589.02
2019-05-03T14:58:25.881Z,95583.84
2019-05-03T15:01:01.895Z,95587.89
2019-05-03T15:03:30.407Z,95590.88
2019-05-03T15:05:58.888Z,95586.28
2019-05-03T15:08:27.457Z,95592.26
2019-05-03T15:10:55.974Z,95584.36
2019-05-03T15:13:25.111Z,95587.09
2019-05-03T15:15:54.768Z,95583.58
2019-05-03T15:18:25.417Z,95579.77
2019-05-03T15:20:54.969Z,95578.67
2019-05-03T15:23:25.515Z,95578.94
2019-05-03T15:25:54.563Z,95575.64
2019-05-03T15:28:25.149Z,95578.63
2019-05-03T15:30:55.347Z,95576.22
2019-05-03T15:33:23.993Z,95572.67
2019-05-03T15:35:52.560Z,95578.33
2019-05-03T15:38:21.023Z,95572.91
2019-05-03T15:40:49.622Z,95571.22
2019-05-03T15:43:19.867Z,95576.66
2019-05-03T15:45:49.995Z,95582.59
2019-05-03T15:48:20.139Z,95589.09
2019-05-03T15:50:49.022Z,95581.77
2019-05-03T15:53:17.494Z,95590.99
2019-05-03T15:55:45.980Z,95588.56
2019-05-03T15:58:16.046Z,95594.25
2019-05-03T16:00:44.838Z,95589.34
2019-05-03T16:03:14.533Z,95594.20
2019-05-03T16:05:44.753Z,95598.20
2019-05-03T16:08:15.271Z,95591.13
2019-05-03T16:10:45.546Z,95594.11
2019-05-03T16:13:14.282Z,95597.36
2019-05-03T16:15:44.556Z,95595.16
2019-05-03T16:18:14.857Z,95602.20
2019-05-03T16:20:45.066Z,95601.38
2019-05-03T16:23:15.325Z,95607.08
2019-05-03T16:25:44.872Z,95604.63
2019-05-03T16:28:26.890Z,95614.63
2019-05-03T16:30:57.027Z,95612.38
2019-05-03T16:33:27.930Z,95611.00
2019-05-03T16:35:56.098Z,95606.91
2019-05-03T16:38:27.655Z,95598.23
2019-05-03T16:41:05.173Z,95609.31
2019-05-03T16:43:55.294Z,95613.13
2019-05-03T16:52:08.559Z,95608.09
2019-05-03T16:57:37.967Z,95617.52
2019-05-03T17:00:25.073Z,95618.02
2019-05-03T17:02:55.111Z,95622.53
2019-05-03T17:05:41.415Z,95629.83
2019-05-03T17:08:25.069Z,95630.39
2019-05-03T17:10:57.003Z,95632.03
2019-05-03T17:13:25.615Z,95622.11
2019-05-03T17:15:54.138Z,95638.25
2019-05-03T17:18:24.647Z,95642.48
2019-05-03T17:20:54.794Z,95639.64
2019-05-03T17:23:24.577Z,95649.52
2019-05-03T17:25:53.452Z,95650.37
2019-05-03T17:28:21.902Z,95649.80
2019-05-03T17:30:50.435Z,95655.50
2019-05-03T17:33:18.923Z,95654.95
2019-05-03T17:35:47.423Z,95654.14
2019-05-03T17:38:17.406Z,95655.41
2019-05-03T17:40:59.462Z,95653.52
2019-05-03T17:43:38.696Z,95652.71
2019-05-03T17:46:08.900Z,95650.25
2019-05-03T17:48:39.030Z,95660.20
2019-05-03T17:51:07.627Z,95658.80
2019-05-03T17:53:37.757Z,95667.93
2019-05-03T17:56:17.216Z,95660.31
2019-05-03T17:58:59.135Z,95656.98
2019-05-03T18:01:32.079Z,95673.27
2019-05-03T18:04:11.198Z,95675.16
2019-05-03T18:06:41.329Z,95672.06
2019-05-03T18:09:23.270Z,95671.66
2019-05-03T18:12:06.663Z,95676.69
2019-05-03T18:14:35.429Z,95674.45
2019-05-03T18:17:05.785Z,95676.29
2019-05-03T18:19:34.520Z,95678.39
2019-05-03T18:22:05.059Z,95680.52
2019-05-03T18:24:35.062Z,95683.73
2019-05-03T18:27:03.672Z,95687.20
2019-05-03T18:29:32.197Z,95683.34
2019-05-03T18:32:00.694Z,95688.15
2019-05-03T18:34:29.280Z,95687.16
2019-05-03T18:36:57.759Z,95684.70
2019-05-03T18:39:26.249Z,95690.80
2019-05-03T18:41:54.741Z,95694.44
2019-05-03T18:44:30.402Z,95697.88
2019-05-03T18:47:05.315Z,95695.88
2019-05-03T18:49:35.383Z,95698.28
2019-05-03T18:52:04.444Z,95703.09
2019-05-03T18:54:34.950Z,95704.52
2019-05-03T18:57:04.973Z,95706.11
2019-05-03T18:59:33.649Z,95705.10
2019-05-03T19:02:02.214Z,95705.69
2019-05-03T19:04:35.716Z,95709.97
2019-05-03T19:07:06.593Z,95708.63
2019-05-03T19:09:50.500Z,95709.78
2019-05-03T19:12:35.748Z,95714.38
2019-05-03T19:15:06.069Z,95713.95
2019-05-03T19:17:39.159Z,95719.83
2019-05-03T19:20:09.554Z,95722.88
2019-05-03T19:22:38.107Z,95724.97
2019-05-03T19:25:07.552Z,95722.86
2019-05-03T19:27:36.068Z,95728.03
2019-05-03T19:30:07.002Z,95724.88
2019-05-03T19:32:35.890Z,95723.77
2019-05-03T19:35:06.805Z,95727.39
2019-05-03T19:37:35.470Z,95732.31
2019-05-03T19:40:06.493Z,95740.41
2019-05-03T19:42:35.424Z,95731.26
2019-05-03T19:45:04.419Z,95732.98
2019-05-03T19:47:32.892Z,95732.55
2019-05-03T19:50:01.426Z,95730.78
2019-05-03T19:52:37.338Z,95733.25
2019-05-03T19:55:08.864Z,95734.07
2019-05-03T19:57:39.049Z,95733.13
2019-05-03T20:00:09.043Z,95737.89
2019-05-03T20:02:45.407Z,95730.48
2019-05-03T20:05:21.776Z,95727.48
2019-05-03T20:08:00.729Z,95735.19
2019-05-03T20:10:30.763Z,95729.80
2019-05-03T20:12:59.292Z,95735.02
2019-05-03T20:15:27.839Z,95732.69
2019-05-03T20:18:00.012Z,95731.92
2019-05-03T20:20:26.638Z,95731.84
2019-05-03T20:22:55.147Z,95733.31
2019-05-03T20:25:24.386Z,95736.36
2019-05-03T20:27:52.963Z,95733.80
2019-05-03T20:30:21.435Z,95733.36
2019-05-03T20:32:49.955Z,95735.60
2019-05-03T20:35:19.531Z,95739.17
2019-05-03T20:37:48.169Z,95734.02
2019-05-03T20:40:16.738Z,95731.73
2019-05-03T20:42:58.384Z,95739.05
2019-05-03T20:45:37.022Z,95735.97
2019-05-03T20:48:07.197Z,95740.19
2019-05-03T20:50:35.692Z,95738.18
2019-05-03T20:53:05.375Z,95742.81
2019-05-03T20:55:34.736Z,95734.48
2019-05-03T20:58:03.392Z,95739.74
2019-05-03T21:00:31.898Z,95734.81
2019-05-03T21:03:00.411Z,95741.62
2019-05-03T21:05:32.958Z,95734.73
2019-05-03T21:07:59.200Z,95732.13
2019-05-03T21:10:27.681Z,95731.34
2019-05-03T21:12:56.156Z,95734.48
2019-05-03T21:15:44.411Z,95730.28
2019-05-03T21:18:30.296Z,95731.78
2019-05-03T21:21:00.440Z,95728.17
2019-05-03T21:23:30.596Z,95728.11
2019-05-03T21:26:09.473Z,95734.86
2019-05-03T21:28:31.114Z,95737.11
2019-05-03T21:31:00.125Z,95731.84
2019-05-03T21:33:28.697Z,95738.52
2019-05-03T21:35:57.202Z,95729.84
2019-05-03T21:38:25.756Z,95727.97
2019-05-03T21:40:54.653Z,95732.60
2019-05-03T21:43:23.316Z,95726.98
2019-05-03T21:45:54.423Z,95730.66
2019-05-03T21:48:40.584Z,95719.01
2019-05-03T21:51:09.103Z,95726.77
2019-05-03T21:53:38.143Z,95728.70
2019-05-03T21:56:06.800Z,95730.66
2019-05-03T21:58:35.319Z,95729.67
2019-05-03T22:01:05.539Z,95719.71
2019-05-03T22:03:35.462Z,95722.88
2019-05-03T22:06:04.116Z,95717.25
2019-05-03T22:08:32.596Z,95716.19
2019-05-03T22:11:01.104Z,95719.83
2019-05-03T22:13:29.637Z,95719.83
2019-05-03T22:16:04.788Z,95715.91
2019-05-03T22:18:35.129Z,95715.69
2019-05-03T22:21:20.356Z,95713.14
2019-05-03T22:23:59.174Z,95706.22
2019-05-03T22:26:45.654Z,95705.75
2019-05-03T22:29:17.110Z,95710.35
2019-05-03T22:31:45.260Z,95709.16
2019-05-03T22:34:15.061Z,95711.13
2019-05-03T22:36:44.383Z,95707.38
2019-05-03T22:39:13.195Z,95696.77
2019-05-03T22:41:41.824Z,95696.97
2019-05-03T22:44:10.337Z,95702.13
2019-05-03T22:46:38.839Z,95702.75
2019-05-03T22:49:07.509Z,95700.66
2019-05-03T22:51:36.003Z,95703.04
2019-05-03T22:54:04.800Z,95696.19
2019-05-03T22:56:35.441Z,95691.88
2019-05-03T22:59:05.366Z,95693.25
2019-05-03T23:01:35.262Z,95689.50
2019-05-03T23:04:05.651Z,95681.36
2019-05-03T23:06:34.220Z,95688.83
2019-05-03T23:09:04.928Z,95688.33
2019-05-03T23:11:32.920Z,95684.42
2019-05-03T23:14:05.021Z,95684.08
2019-05-03T23:16:35.736Z,95681.64
2019-05-03T23:19:05.525Z,95682.02
2019-05-03T23:21:41.830Z,95689.27
2019-05-03T23:24:10.591Z,95684.50
2019-05-03T23:26:39.093Z,95681.05
2019-05-03T23:29:07.599Z,95686.23
2019-05-03T23:31:36.082Z,95678.16
2019-05-03T23:34:05.057Z,95676.05
2019-05-03T23:36:36.225Z,95683.14
2019-05-03T23:39:05.272Z,95673.48
2019-05-03T23:41:35.105Z,95673.34
2019-05-03T23:44:04.763Z,95670.88
2019-05-03T23:46:35.059Z,95668.18
2019-05-03T23:49:03.561Z,95667.13
2019-05-03T23:51:51.512Z,95665.66
2019-05-03T23:54:20.092Z,95656.52
2019-05-03T23:56:48.643Z,95666.59
2019-05-03T23:59:17.263Z,95659.22
